createdAt,value
2018-01-01T00:00:05.254Z,15.07
2018-01-01T00:02:33.363Z,15.10
2018-01-01T00:05:01.708Z,14.63
2018-01-01T00:07:30.038Z,13.70
2018-01-01T00:09:58.386Z,14.87
2018-01-01T00:12:26.854Z,14.00
2018-01-01T00:14:55.186Z,12.53
2018-01-01T00:17:23.518Z,12.27
2018-01-01T00:19:51.880Z,11.70
2018-01-01T00:22:20.212Z,12.50
2018-01-01T00:24:48.674Z,11.70
2018-01-01T00:27:17.015Z,13.03
2018-01-01T00:29:45.384Z,13.20
2018-01-01T00:32:13.717Z,11.70
2018-01-01T00:34:42.096Z,11.12
2018-01-01T00:37:10.426Z,10.90
2018-01-01T00:39:38.794Z,10.73
2018-01-01T00:42:07.110Z,9.60
2018-01-01T00:44:35.463Z,13.43
2018-01-01T00:47:03.786Z,10.80
2018-01-01T00:49:32.140Z,9.93
2018-01-01T00:52:00.514Z,11.70
2018-01-01T00:54:28.861Z,12.35
2018-01-01T00:56:57.190Z,9.68
2018-01-01T00:59:25.534Z,9.73
2018-01-01T01:01:53.858Z,7.87
2018-01-01T01:04:22.202Z,7.00
2018-01-01T01:06:50.526Z,6.93
2018-01-01T01:09:18.869Z,6.12
2018-01-01T01:11:47.202Z,7.55
2018-01-01T01:14:15.544Z,6.03
2018-01-01T01:16:43.870Z,5.15
2018-01-01T01:19:12.209Z,4.97
2018-01-01T01:21:40.550Z,5.57
2018-01-01T01:24:08.894Z,5.07
2018-01-01T01:26:37.227Z,4.20
2018-01-01T01:29:05.578Z,4.00
2018-01-01T01:31:33.894Z,4.00
2018-01-01T01:34:02.229Z,3.70
2018-01-01T01:36:30.542Z,3.90
2018-01-01T01:38:58.886Z,3.20
2018-01-01T01:41:27.207Z,4.50
2018-01-01T01:43:55.562Z,5.28
2018-01-01T01:46:23.886Z,5.25
2018-01-01T01:48:52.214Z,7.10
2018-01-01T01:51:20.568Z,5.40
2018-01-01T01:53:48.885Z,6.25
2018-01-01T01:56:17.226Z,6.30
2018-01-01T01:58:45.539Z,7.62
2018-01-01T02:01:13.878Z,9.20
2018-01-01T02:03:42.211Z,9.35
2018-01-01T02:06:10.547Z,9.50
2018-01-01T02:08:38.885Z,11.55
2018-01-01T02:11:07.241Z,16.70
2018-01-01T02:13:35.566Z,17.25
2018-01-01T02:16:03.922Z,19.15
2018-01-01T02:18:32.257Z,20.88
2018-01-01T02:21:00.601Z,23.05
2018-01-01T02:23:28.926Z,23.02
2018-01-01T02:25:57.271Z,23.55
2018-01-01T02:28:25.590Z,21.55
2018-01-01T02:30:53.935Z,21.92
2018-01-01T02:33:22.253Z,22.52
2018-01-01T02:35:50.604Z,21.80
2018-01-01T02:38:18.922Z,20.40
2018-01-01T02:40:47.294Z,19.90
2018-01-01T02:43:15.652Z,17.50
2018-01-01T02:45:43.967Z,18.02
2018-01-01T02:50:46.269Z,14.30
2018-01-01T02:53:14.596Z,15.25
2018-01-01T02:55:42.938Z,13.55
2018-01-01T02:58:11.258Z,14.30
2018-01-01T03:00:39.611Z,11.10
2018-01-01T03:03:07.932Z,11.45
2018-01-01T03:05:36.266Z,8.82
2018-01-01T03:08:04.598Z,9.23
2018-01-01T03:10:32.937Z,10.27
2018-01-01T03:13:01.257Z,10.90
2018-01-01T03:15:29.601Z,9.77
2018-01-01T03:17:57.926Z,10.82
2018-01-01T03:20:26.267Z,10.18
2018-01-01T03:22:54.597Z,9.38
2018-01-01T03:25:22.962Z,9.98
2018-01-01T03:27:51.276Z,8.75
2018-01-01T03:30:19.609Z,8.90
2018-01-01T03:32:47.951Z,8.13
2018-01-01T03:35:16.296Z,7.82
2018-01-01T03:37:45.349Z,7.37
2018-01-01T03:40:13.686Z,7.25
2018-01-01T03:42:41.998Z,6.43
2018-01-01T03:45:10.346Z,5.18
2018-01-01T03:47:38.670Z,5.57
2018-01-01T03:50:07.014Z,4.62
2018-01-01T03:52:35.353Z,5.87
2018-01-01T03:55:03.678Z,5.07
2018-01-01T03:57:32.002Z,4.97
2018-01-01T04:00:00.315Z,5.25
2018-01-01T04:02:28.653Z,4.65
2018-01-01T04:04:56.961Z,4.00
2018-01-01T04:07:25.314Z,3.72
2018-01-01T04:09:54.415Z,3.72
2018-01-01T04:12:22.770Z,3.95
2018-01-01T04:14:51.089Z,3.87
2018-01-01T04:17:19.421Z,4.40
2018-01-01T04:19:47.739Z,3.75
2018-01-01T04:22:16.093Z,3.33
2018-01-01T04:24:44.398Z,2.92
2018-01-01T04:27:12.733Z,2.95
2018-01-01T04:29:41.055Z,2.70
2018-01-01T04:32:09.411Z,3.25
2018-01-01T04:34:37.723Z,2.28
2018-01-01T04:37:06.063Z,2.40
2018-01-01T04:39:34.383Z,3.00
2018-01-01T04:42:02.715Z,1.75
2018-01-01T04:44:31.028Z,1.33
2018-01-01T04:46:59.349Z,2.10
2018-01-01T04:49:27.661Z,1.23
2018-01-01T04:51:55.995Z,1.77
2018-01-01T04:54:24.301Z,2.00
2018-01-01T04:56:52.651Z,1.40
2018-01-01T04:59:20.961Z,1.15
2018-01-01T05:01:50.134Z,2.10
2018-01-01T05:04:18.441Z,1.40
2018-01-01T05:06:46.918Z,1.23
2018-01-01T05:09:15.225Z,1.10
2018-01-01T05:11:43.580Z,1.10
2018-01-01T05:14:12.085Z,1.05
2018-01-01T05:16:40.414Z,1.00
2018-01-01T05:19:08.727Z,1.15
2018-01-01T05:21:37.058Z,1.10
2018-01-01T05:24:05.362Z,1.30
2018-01-01T05:26:33.687Z,1.55
2018-01-01T05:29:02.005Z,1.50
2018-01-01T05:31:30.324Z,1.50
2018-01-01T05:33:58.633Z,1.48
2018-01-01T05:36:26.970Z,1.60
2018-01-01T05:38:55.278Z,1.55
2018-01-01T05:41:23.609Z,1.65
2018-01-01T05:43:51.934Z,1.70
2018-01-01T05:46:20.275Z,1.17
2018-01-01T05:48:48.588Z,1.10
2018-01-01T05:51:16.936Z,1.50
2018-01-01T05:53:45.242Z,1.37
2018-01-01T05:56:13.550Z,1.15
2018-01-01T05:58:41.880Z,1.17
2018-01-01T06:01:10.185Z,1.00
2018-01-01T06:03:38.518Z,1.50
2018-01-01T06:06:06.826Z,1.02
2018-01-01T06:08:35.149Z,1.40
2018-01-01T06:11:03.481Z,1.35
2018-01-01T06:13:31.814Z,1.70
2018-01-01T06:16:00.122Z,1.55
2018-01-01T06:18:28.450Z,1.37
2018-01-01T06:20:56.758Z,1.30
2018-01-01T06:23:25.093Z,1.17
2018-01-01T06:25:54.297Z,1.00
2018-01-01T06:28:22.629Z,2.00
2018-01-01T06:30:50.963Z,1.55
2018-01-01T06:33:19.284Z,0.80
2018-01-01T06:35:47.594Z,2.05
2018-01-01T06:38:15.926Z,1.83
2018-01-01T06:40:44.242Z,1.45
2018-01-01T06:43:12.566Z,1.35
2018-01-01T06:45:40.874Z,1.30
2018-01-01T06:48:09.206Z,1.40
2018-01-01T06:50:37.522Z,1.33
2018-01-01T06:53:05.854Z,1.62
2018-01-01T06:55:34.189Z,1.65
2018-01-01T06:58:02.518Z,1.87
2018-01-01T07:00:30.831Z,1.00
2018-01-01T07:02:59.157Z,1.10
2018-01-01T07:05:27.485Z,1.33
2018-01-01T07:07:55.814Z,1.00
2018-01-01T07:10:24.125Z,1.00
2018-01-01T07:12:52.446Z,2.75
2018-01-01T07:15:20.749Z,1.20
2018-01-01T07:17:49.083Z,1.30
2018-01-01T07:20:17.385Z,1.40
2018-01-01T07:22:45.722Z,1.55
2018-01-01T07:25:14.034Z,1.10
2018-01-01T07:27:42.366Z,1.30
2018-01-01T07:30:10.680Z,1.10
2018-01-01T07:32:39.008Z,1.27
2018-01-01T07:35:07.322Z,1.15
2018-01-01T07:37:35.657Z,1.08
2018-01-01T07:40:03.954Z,1.20
2018-01-01T07:42:32.286Z,1.50
2018-01-01T07:45:00.590Z,1.83
2018-01-01T07:47:28.918Z,0.90
2018-01-01T07:49:57.229Z,1.12
2018-01-01T07:52:25.563Z,2.15
2018-01-01T07:54:53.866Z,1.30
2018-01-01T07:57:22.176Z,1.02
2018-01-01T07:59:50.537Z,1.10
2018-01-01T08:02:18.900Z,4.03
2018-01-01T08:04:47.221Z,1.00
2018-01-01T08:07:15.538Z,0.70
2018-01-01T08:09:43.860Z,0.60
2018-01-01T08:12:12.165Z,0.80
2018-01-01T08:14:40.501Z,1.00
2018-01-01T08:17:08.810Z,0.85
2018-01-01T08:19:37.141Z,0.82
2018-01-01T08:22:05.458Z,0.80
2018-01-01T08:24:33.786Z,1.30
2018-01-01T08:27:02.098Z,0.77
2018-01-01T08:29:30.421Z,1.05
2018-01-01T08:31:58.730Z,0.93
2018-01-01T08:34:27.058Z,0.70
2018-01-01T08:36:55.361Z,0.93
2018-01-01T08:39:23.718Z,1.20
2018-01-01T08:41:52.013Z,1.70
2018-01-01T08:44:20.345Z,1.90
2018-01-01T08:46:48.654Z,1.80
2018-01-01T08:49:16.983Z,1.10
2018-01-01T08:51:45.285Z,1.30
2018-01-01T08:54:13.614Z,1.65
2018-01-01T08:56:41.922Z,1.30
2018-01-01T08:59:10.250Z,1.90
2018-01-01T09:01:38.567Z,0.90
2018-01-01T09:04:07.102Z,1.10
2018-01-01T09:06:35.418Z,1.50
2018-01-01T09:09:03.750Z,1.48
2018-01-01T09:11:32.334Z,1.42
2018-01-01T09:14:00.738Z,1.40
2018-01-01T09:16:29.041Z,1.53
2018-01-01T09:18:57.374Z,1.00
2018-01-01T09:21:25.681Z,1.43
2018-01-01T09:23:54.022Z,1.50
2018-01-01T09:26:22.347Z,2.15
2018-01-01T09:28:50.683Z,1.93
2018-01-01T09:31:18.995Z,1.73
2018-01-01T09:33:47.334Z,2.23
2018-01-01T09:36:15.645Z,2.50
2018-01-01T09:38:43.974Z,2.10
2018-01-01T09:41:12.284Z,2.20
2018-01-01T09:43:40.614Z,2.10
2018-01-01T09:46:09.227Z,2.60
2018-01-01T09:48:37.541Z,2.40
2018-01-01T09:51:05.889Z,2.20
2018-01-01T09:53:34.278Z,2.00
2018-01-01T09:56:02.590Z,2.90
2018-01-01T09:58:30.908Z,2.63
2018-01-01T10:00:59.246Z,2.28
2018-01-01T10:03:27.553Z,2.57
2018-01-01T10:05:55.909Z,2.03
2018-01-01T10:08:24.202Z,2.27
2018-01-01T10:10:52.534Z,2.03
2018-01-01T10:13:21.171Z,2.10
2018-01-01T10:15:49.553Z,1.63
2018-01-01T10:18:17.811Z,2.50
2018-01-01T10:20:46.149Z,2.00
2018-01-01T10:23:14.468Z,2.15
2018-01-01T10:25:42.802Z,1.90
2018-01-01T10:28:11.121Z,1.90
2018-01-01T10:30:39.457Z,2.63
2018-01-01T10:33:07.780Z,1.40
2018-01-01T10:35:36.111Z,1.50
2018-01-01T10:38:04.418Z,1.77
2018-01-01T10:40:32.766Z,1.83
2018-01-01T10:43:01.083Z,2.33
2018-01-01T10:45:30.406Z,2.55
2018-01-01T10:47:58.720Z,1.63
2018-01-01T10:50:27.278Z,1.50
2018-01-01T10:52:56.609Z,1.52
2018-01-01T10:55:24.950Z,2.13
2018-01-01T10:57:54.106Z,2.17
2018-01-01T11:00:22.441Z,1.77
2018-01-01T11:02:50.866Z,2.37
2018-01-01T11:05:19.195Z,2.17
2018-01-01T11:07:47.511Z,1.93
2018-01-01T11:10:15.887Z,1.83
2018-01-01T11:12:44.202Z,2.17
2018-01-01T11:15:12.542Z,1.60
2018-01-01T11:17:41.007Z,1.40
2018-01-01T11:20:09.362Z,1.60
2018-01-01T11:22:37.674Z,1.98
2018-01-01T11:25:06.003Z,2.47
2018-01-01T11:27:34.378Z,1.70
2018-01-01T11:30:02.659Z,1.30
2018-01-01T11:32:31.018Z,3.67
2018-01-01T11:34:59.301Z,1.50
2018-01-01T11:37:27.635Z,2.12
2018-01-01T11:39:55.962Z,1.70
2018-01-01T11:42:24.283Z,1.43
2018-01-01T11:44:52.768Z,0.90
2018-01-01T11:47:21.086Z,1.00
2018-01-01T11:49:49.418Z,1.10
2018-01-01T11:52:17.734Z,1.10
2018-01-01T11:54:46.067Z,1.00
2018-01-01T11:57:14.378Z,1.30
2018-01-01T11:59:42.722Z,1.87
2018-01-01T12:02:11.066Z,1.30
2018-01-01T12:04:40.509Z,1.10
2018-01-01T12:07:08.863Z,1.80
2018-01-01T12:09:37.174Z,1.00
2018-01-01T12:12:05.519Z,0.90
2018-01-01T12:14:33.829Z,1.10
2018-01-01T12:17:02.158Z,1.10
2018-01-01T12:19:30.894Z,1.37
2018-01-01T12:21:59.225Z,1.20
2018-01-01T12:24:27.551Z,1.50
2018-01-01T12:26:55.894Z,1.17
2018-01-01T12:29:24.205Z,1.40
2018-01-01T12:31:52.549Z,1.37
2018-01-01T12:34:20.876Z,1.30
2018-01-01T12:36:49.818Z,1.30
2018-01-01T12:39:18.130Z,1.50
2018-01-01T12:41:46.474Z,1.50
2018-01-01T12:44:14.794Z,1.50
2018-01-01T12:46:43.133Z,1.00
2018-01-01T12:49:11.453Z,1.15
2018-01-01T12:51:39.790Z,1.20
2018-01-01T12:54:08.101Z,1.37
2018-01-01T12:56:36.690Z,1.27
2018-01-01T12:59:05.238Z,1.60
2018-01-01T13:01:38.593Z,1.20
2018-01-01T13:04:08.143Z,1.37
2018-01-01T13:06:37.580Z,1.90
2018-01-01T13:09:05.987Z,1.00
2018-01-01T13:11:34.348Z,1.87
2018-01-01T13:14:02.665Z,1.17
2018-01-01T13:16:31.019Z,1.27
2018-01-01T13:18:59.341Z,1.23
2018-01-01T13:21:27.702Z,1.53
2018-01-01T13:23:56.209Z,1.35
2018-01-01T13:26:24.630Z,1.20
2018-01-01T13:28:53.056Z,1.13
2018-01-01T13:31:21.401Z,1.53
2018-01-01T13:33:49.720Z,2.13
2018-01-01T13:36:18.639Z,1.77
2018-01-01T13:38:46.966Z,1.17
2018-01-01T13:41:15.294Z,1.50
2018-01-01T13:43:43.609Z,1.43
2018-01-01T13:46:11.959Z,1.67
2018-01-01T13:48:46.760Z,1.50
2018-01-01T13:51:16.754Z,1.20
2018-01-01T13:53:45.063Z,1.55
2018-01-01T13:56:13.401Z,1.75
2018-01-01T13:58:41.726Z,1.43
2018-01-01T14:01:10.067Z,1.40
2018-01-01T14:03:38.478Z,0.90
2018-01-01T14:06:06.801Z,1.40
2018-01-01T14:08:35.114Z,1.80
2018-01-01T14:11:03.481Z,1.20
2018-01-01T14:13:31.798Z,1.27
2018-01-01T14:16:00.130Z,1.40
2018-01-01T14:18:28.515Z,1.33
2018-01-01T14:20:56.842Z,1.60
2018-01-01T14:23:25.182Z,1.23
2018-01-01T14:25:54.394Z,1.80
2018-01-01T14:28:23.558Z,2.20
2018-01-01T14:30:51.862Z,1.43
2018-01-01T14:33:20.202Z,1.20
2018-01-01T14:35:49.437Z,1.60
2018-01-01T14:38:17.765Z,1.50
2018-01-01T14:40:46.086Z,1.40
2018-01-01T14:43:14.419Z,1.17
2018-01-01T14:45:42.747Z,1.77
2018-01-01T14:48:11.234Z,2.00
2018-01-01T14:50:39.535Z,1.40
2018-01-01T14:53:07.913Z,1.70
2018-01-01T14:55:36.281Z,1.30
2018-01-01T14:58:04.601Z,1.58
2018-01-01T15:00:33.750Z,1.03
2018-01-01T15:03:08.002Z,1.80
2018-01-01T15:05:36.457Z,2.10
2018-01-01T15:08:05.082Z,1.70
2018-01-01T15:10:33.430Z,1.73
2018-01-01T15:13:02.699Z,1.30
2018-01-01T15:15:31.025Z,1.73
2018-01-01T15:17:59.372Z,1.50
2018-01-01T15:20:28.267Z,1.40
2018-01-01T15:22:57.503Z,1.57
2018-01-01T15:25:26.818Z,1.60
2018-01-01T15:27:55.209Z,1.10
2018-01-01T15:30:23.534Z,1.20
2018-01-01T15:32:51.882Z,1.50
2018-01-01T15:35:20.206Z,1.93
2018-01-01T15:37:48.742Z,1.50
2018-01-01T15:40:17.145Z,1.55
2018-01-01T15:42:45.614Z,1.90
2018-01-01T15:45:15.410Z,1.37
2018-01-01T15:47:44.488Z,1.90
2018-01-01T15:50:14.176Z,1.55
2018-01-01T15:52:43.555Z,2.07
2018-01-01T15:55:12.473Z,1.00
2018-01-01T15:57:40.970Z,1.70
2018-01-01T16:00:09.707Z,1.53
2018-01-01T16:02:38.598Z,1.80
2018-01-01T16:05:08.048Z,2.25
2018-01-01T16:07:38.813Z,2.63
2018-01-01T16:10:10.122Z,1.83
2018-01-01T16:12:38.649Z,1.75
2018-01-01T16:15:08.270Z,1.50
2018-01-01T16:17:36.904Z,1.13
2018-01-01T16:20:05.525Z,3.03
2018-01-01T16:22:33.993Z,1.33
2018-01-01T16:25:02.568Z,1.20
2018-01-01T16:27:31.132Z,1.93
2018-01-01T16:30:00.117Z,2.90
2018-01-01T16:32:28.665Z,1.80
2018-01-01T16:34:57.532Z,1.83
2018-01-01T16:37:26.242Z,1.33
2018-01-01T16:39:55.488Z,1.20
2018-01-01T16:42:23.940Z,1.20
2018-01-01T16:44:52.463Z,1.90
2018-01-01T16:47:21.493Z,1.60
2018-01-01T16:49:50.636Z,1.87
2018-01-01T16:52:19.162Z,1.47
2018-01-01T16:54:48.035Z,2.05
2018-01-01T16:57:16.829Z,1.58
2018-01-01T16:59:45.309Z,1.70
2018-01-01T17:02:14.016Z,1.60
2018-01-01T17:04:42.685Z,1.40
2018-01-01T17:07:11.137Z,1.50
2018-01-01T17:09:39.660Z,1.40
2018-01-01T17:12:08.043Z,1.37
2018-01-01T17:14:36.472Z,1.77
2018-01-01T17:17:04.946Z,1.67
2018-01-01T17:19:33.507Z,2.20
2018-01-01T17:22:01.934Z,2.47
2018-01-01T17:24:30.353Z,2.00
2018-01-01T17:26:59.937Z,2.10
2018-01-01T17:29:28.569Z,2.15
2018-01-01T17:31:57.024Z,1.90
2018-01-01T17:34:25.563Z,1.53
2018-01-01T17:36:53.964Z,1.13
2018-01-01T17:39:22.639Z,3.33
2018-01-01T17:41:51.929Z,2.10
2018-01-01T17:44:20.519Z,2.50
2018-01-01T17:46:48.945Z,2.70
2018-01-01T17:49:17.353Z,5.90
2018-01-01T17:51:45.831Z,8.50
2018-01-01T17:54:14.395Z,3.87
2018-01-01T17:56:42.924Z,6.17
2018-01-01T17:59:11.578Z,4.00
2018-01-01T18:01:40.234Z,6.87
2018-01-01T18:04:08.664Z,9.70
2018-01-01T18:06:37.077Z,3.80
2018-01-01T18:09:05.504Z,4.78
2018-01-01T18:11:33.809Z,5.00
2018-01-01T18:14:02.159Z,3.85
2018-01-01T18:16:30.493Z,2.30
2018-01-01T18:18:58.842Z,1.50
2018-01-01T18:21:27.174Z,2.53
2018-01-01T18:23:55.840Z,1.67
2018-01-01T18:26:25.881Z,2.40
2018-01-01T18:28:55.137Z,1.83
2018-01-01T18:31:24.018Z,1.20
2018-01-01T18:33:52.450Z,1.50
2018-01-01T18:36:20.762Z,1.80
2018-01-01T18:38:49.105Z,1.90
2018-01-01T18:41:17.413Z,1.40
2018-01-01T18:43:45.746Z,1.90
2018-01-01T18:46:14.065Z,1.97
2018-01-01T18:48:42.409Z,2.03
2018-01-01T18:51:10.732Z,3.13
2018-01-01T18:53:39.082Z,1.40
2018-01-01T18:56:08.354Z,2.63
2018-01-01T18:58:36.684Z,1.12
2018-01-01T19:01:05.015Z,1.73
2018-01-01T19:03:33.363Z,1.70
2018-01-01T19:06:01.683Z,1.75
2018-01-01T19:08:30.007Z,2.23
2018-01-01T19:10:58.346Z,1.73
2018-01-01T19:13:26.668Z,2.20
2018-01-01T19:15:55.003Z,1.90
2018-01-01T19:18:23.323Z,1.90
2018-01-01T19:20:51.663Z,1.73
2018-01-01T19:23:20.005Z,1.57
2018-01-01T19:25:49.310Z,1.27
2018-01-01T19:28:17.626Z,2.30
2018-01-01T19:30:45.979Z,2.42
2018-01-01T19:33:14.283Z,2.22
2018-01-01T19:35:43.518Z,2.47
2018-01-01T19:38:11.833Z,2.20
2018-01-01T19:40:40.181Z,1.40
2018-01-01T19:43:08.493Z,1.63
2018-01-01T19:45:36.834Z,1.80
2018-01-01T19:48:05.149Z,1.67
2018-01-01T19:50:33.498Z,1.97
2018-01-01T19:53:01.818Z,2.03
2018-01-01T19:55:30.156Z,0.98
2018-01-01T19:57:58.470Z,1.20
2018-01-01T20:00:27.387Z,2.90
2018-01-01T20:02:55.705Z,1.73
2018-01-01T20:05:24.970Z,1.80
2018-01-01T20:07:53.270Z,1.80
2018-01-01T20:10:21.606Z,1.70
2018-01-01T20:12:49.927Z,2.85
2018-01-01T20:15:18.274Z,2.28
2018-01-01T20:17:46.591Z,1.30
2018-01-01T20:20:14.946Z,1.53
2018-01-01T20:22:43.266Z,1.10
2018-01-01T20:25:11.602Z,1.53
2018-01-01T20:27:39.926Z,1.60
2018-01-01T20:30:08.262Z,2.65
2018-01-01T20:32:36.598Z,2.80
2018-01-01T20:35:04.946Z,3.85
2018-01-01T20:37:33.259Z,3.10
2018-01-01T20:40:01.726Z,2.40
2018-01-01T20:42:30.053Z,2.60
2018-01-01T20:44:58.402Z,1.30
2018-01-01T20:47:26.717Z,2.78
2018-01-01T20:49:55.065Z,1.73
2018-01-01T20:52:23.382Z,2.72
2018-01-01T20:54:51.723Z,1.80
2018-01-01T20:57:20.075Z,1.83
2018-01-01T20:59:48.546Z,2.17
2018-01-01T21:02:16.893Z,1.40
2018-01-01T21:04:45.245Z,1.33
2018-01-01T21:07:13.577Z,1.60
2018-01-01T21:09:41.902Z,1.42
2018-01-01T21:12:10.251Z,1.85
2018-01-01T21:14:38.584Z,2.27
2018-01-01T21:17:06.919Z,1.20
2018-01-01T21:19:35.983Z,1.77
2018-01-01T21:22:04.318Z,3.07
2018-01-01T21:24:32.693Z,2.33
2018-01-01T21:27:01.036Z,1.48
2018-01-01T21:29:29.363Z,1.30
2018-01-01T21:31:57.719Z,1.53
2018-01-01T21:34:26.140Z,1.17
2018-01-01T21:36:54.466Z,1.37
2018-01-01T21:39:22.838Z,1.10
2018-01-01T21:41:51.176Z,1.33
2018-01-01T21:44:19.485Z,2.40
2018-01-01T21:46:47.833Z,2.20
2018-01-01T21:49:16.151Z,1.30
2018-01-01T21:51:44.519Z,1.90
2018-01-01T21:54:12.853Z,1.23
2018-01-01T21:56:41.190Z,0.87
2018-01-01T21:59:10.329Z,1.50
2018-01-01T22:01:38.687Z,1.13
2018-01-01T22:04:07.071Z,1.00
2018-01-01T22:06:35.405Z,1.27
2018-01-01T22:09:03.727Z,1.57
2018-01-01T22:11:32.079Z,1.07
2018-01-01T22:14:00.398Z,1.20
2018-01-01T22:16:28.774Z,1.73
2018-01-01T22:18:57.098Z,1.50
2018-01-01T22:21:25.433Z,0.93
2018-01-01T22:23:53.760Z,1.87
2018-01-01T22:26:22.102Z,1.42
2018-01-01T22:28:50.427Z,1.00
2018-01-01T22:31:18.763Z,1.10
2018-01-01T22:33:47.077Z,1.48
2018-01-01T22:36:15.458Z,1.33
2018-01-01T22:38:44.717Z,1.52
2018-01-01T22:41:13.102Z,0.80
2018-01-01T22:43:41.674Z,1.40
2018-01-01T22:46:10.111Z,1.07
2018-01-01T22:48:38.557Z,0.80
2018-01-01T22:51:06.883Z,1.40
2018-01-01T22:53:35.201Z,1.33
2018-01-01T22:56:03.547Z,1.50
2018-01-01T22:58:31.859Z,1.47
2018-01-01T23:01:00.218Z,1.10
2018-01-01T23:03:28.538Z,1.60
2018-01-01T23:05:56.845Z,1.77
2018-01-01T23:08:25.217Z,1.70
2018-01-01T23:10:53.606Z,1.60
2018-01-01T23:13:21.949Z,1.40
2018-01-01T23:15:50.506Z,2.15
2018-01-01T23:18:19.098Z,1.30
2018-01-01T23:20:47.403Z,1.10
2018-01-01T23:23:15.760Z,1.57
2018-01-01T23:25:44.055Z,1.30
2018-01-01T23:28:12.389Z,1.50
2018-01-01T23:30:40.702Z,1.13
2018-01-01T23:33:09.050Z,1.05
2018-01-01T23:35:38.241Z,1.00
2018-01-01T23:38:06.701Z,1.60
2018-01-01T23:40:35.018Z,1.30
2018-01-01T23:43:03.369Z,1.43
2018-01-01T23:45:31.673Z,1.30
2018-01-01T23:48:00.014Z,1.05
2018-01-01T23:50:28.325Z,1.40
2018-01-01T23:52:56.658Z,1.40
2018-01-01T23:55:24.985Z,1.40
2018-01-01T23:57:53.316Z,1.12
